Bookmark and Share
Track history (hours):
 

Maersk Wakamatsu

Last reported at 2013-Jun-20 10:32 UTC. Time now 2014-Apr-23 09:50 UTC.
Position N 25°46' W 079°28'.
Warning: this ship's position is months out of date.

Length 172 m; draft 6.7 m.

Type: Cargo ship. MMSI: 370484000.

NotesDate/timePositionNaut miles runAvg speedWind from/ knotsBaromVisibWave heightAir tempDewpointWater temp
2013-Jun-20 10:32N 25°46' W 079°28'8 8.6
2013-Jun-20 09:33N 25°54' W 079°25'9 8.8
2013-Jun-20 08:33N 26°02' W 079°22'10 9.7
2013-Jun-20 07:33N 26°09' W 079°14'41 1.3
2013-Jun-19 00:33N 26°50' W 079°12'1514.3
2013-Jun-18 23:30N 27°04' W 079°17'1413.8
2013-Jun-18 22:31N 27°17' W 079°22'  
2013-Jun-14 21:31N 38°24' W 076°21'1818.2
2013-Jun-14 20:33N 38°41' W 076°25'1818.1
2013-Jun-14 19:33N 38°59' W 076°23'1212.4
2013-Jun-14 18:33N 39°11' W 076°27'6 6.0
2013-Jun-14 17:31N 39°15' W 076°33'0 0.0
2013-Jun-14 16:31N 39°15' W 076°33'0 0.0
2013-Jun-14 15:31N 39°15' W 076°33'0 0.0
2013-Jun-14 14:31N 39°15' W 076°33'0 0.0
2013-Jun-14 13:31N 39°15' W 076°33'0 0.0
2013-Jun-14 12:31N 39°15' W 076°33'0 0.5
2013-Jun-14 11:33N 39°15' W 076°34'7 6.6
2013-Jun-14 10:33N 39°11' W 076°27'1414.0
2013-Jun-14 09:34N 38°57' W 076°24'3216.1
2013-Jun-14 07:33N 38°25' W 076°21'124 7.6
2013-Jun-13 15:19N 39°18' W 073°57'1317.4
2013-Jun-13 14:33N 39°31' W 073°55'1717.5
2013-Jun-13 13:33N 39°49' W 073°52'1818.0
2013-Jun-13 12:33N 40°07' W 073°50'1817.8
2013-Jun-13 11:33N 40°24' W 073°49'1312.7
2013-Jun-13 10:33N 40°33' W 074°02'9 8.5
2013-Jun-13 09:33N 40°39' W 074°09'2 2.0
2013-Jun-13 08:30N 40°41' W 074°09'0 0.0
2013-Jun-13 07:33N 40°41' W 074°09'0 0.0
2013-Jun-13 06:30N 40°41' W 074°09'0 0.0
2013-Jun-13 05:30N 40°41' W 074°09'0 0.0
2013-Jun-13 04:30N 40°41' W 074°09'0 0.0
2013-Jun-13 03:33N 40°41' W 074°09'0 0.0
2013-Jun-13 02:33N 40°41' W 074°09'0 0.0
2013-Jun-13 01:33N 40°41' W 074°09'0 0.0
2013-Jun-13 00:33N 40°41' W 074°09'0 0.0
2013-Jun-12 23:33N 40°41' W 074°09'0 0.0
2013-Jun-12 22:33N 40°41' W 074°09'0 0.0
2013-Jun-12 21:30N 40°41' W 074°09'0 0.0
2013-Jun-12 20:30N 40°41' W 074°09'0 0.0
2013-Jun-12 19:33N 40°41' W 074°09'0 0.0
2013-Jun-12 18:33N 40°41' W 074°09'0 0.0
2013-Jun-12 17:24N 40°41' W 074°09'0 0.0
2013-Jun-12 16:33N 40°41' W 074°09'0 0.0
2013-Jun-12 15:33N 40°41' W 074°09'0 0.0
2013-Jun-12 14:30N 40°41' W 074°09'0 0.0
2013-Jun-12 13:33N 40°41' W 074°09'0 0.0
2013-Jun-12 12:33N 40°41' W 074°09'0 0.0
2013-Jun-12 11:33N 40°41' W 074°09'2 1.6
2013-Jun-12 10:34N 40°40' W 074°09'5 4.5
2013-Jun-12 09:34N 40°38' W 074°03'1010.0
2013-Jun-12 08:34N 40°30' W 073°56'10 9.3
2013-Jun-12 07:32N 40°25' W 073°45'4110.2
2013-Jun-12 03:31N 39°59' W 073°03'1312.1
2013-Jun-12 02:26N 39°51' W 072°50'1112.6
2013-Jun-12 01:33N 39°44' W 072°39'1313.3
2013-Jun-12 00:33N 39°35' W 072°25'1413.8
2013-Jun-11 23:33N 39°27' W 072°11'1413.6
2013-Jun-11 22:33N 39°18' W 071°57'1514.8
2013-Jun-11 21:32N 39°09' W 071°42'1514.6
2013-Jun-11 20:30N 38°60' W 071°27'3213.8
2013-Jun-11 18:12N 38°40' W 070°55'  

Dump ship's entire track history

sailing weather and tide predictions

Maersk Wakamatsu — 3EZG — position and weather